Tokio, North Dakota
Current Conditions -  °F | °C
As of 6:15 AM on Sunday 23 Nov 2014 (Local Time) from KDVL Reporting Station
Broken Clouds Broken Clouds  
Wind Chill: 30°   Ceiling: 3700
Heat Index: 37°   Visibility: 10mi
Dew Point: 27°   Wind: 12mph
Humidity: 65%   Direction: 230°SW
Pressure: 29.33"   Gusts: NA
Location:  47.92°N, 98.82°W
Report Text: KDVL 231215Z AUTO 23010KT 10SM BKN037 03/M03 A2933 RMK AO1
Loading
Personal Weather Stations






























Interactive Weather Map New forecast layout! Learn more

10-Day Weather Forecast

Advertisements
Track Severe Weather on mobile